Time;durP1;ratioP1;P1;durP2;ratioP2;P2;SDS_P1;SDS_P2;PMS_P1;PMS_P2;Temp;Humidity;BMP_temperature;BMP_pressure;BME280_temperature;BME280_humidity;BME280_pressure;Samples;Min_cycle;Max_cycle;Signal;HPM_P1;HPM_P2
2022/01/09 00:00:26;;;;;;;36.60;21.50;;;;;;;3.93;100.00;92255.47;5072901;28;20051;-85
2022/01/09 00:02:54;;;;;;;44.88;24.98;;;;;;;3.89;100.00;92249.22;5072809;28;20590;-86
2022/01/09 00:05:21;;;;;;;48.80;27.08;;;;;;;3.94;100.00;92259.59;5072541;28;20063;-86
2022/01/09 00:07:48;;;;;;;47.75;28.63;;;;;;;3.96;100.00;92256.84;5072571;28;20133;-86
2022/01/09 00:10:15;;;;;;;46.72;28.25;;;;;;;3.98;100.00;92252.38;5072503;28;20056;-86
2022/01/09 00:12:46;;;;;;;48.17;27.90;;;;;;;3.84;100.00;92234.56;5072716;28;20400;-86
2022/01/09 00:15:13;;;;;;;41.22;24.33;;;;;;;3.99;100.00;92253.94;5072609;28;20049;-85
2022/01/09 00:17:41;;;;;;;39.50;23.95;;;;;;;3.98;100.00;92250.59;5072543;28;20048;-86
2022/01/09 00:20:10;;;;;;;35.78;22.77;;;;;;;3.99;100.00;92252.16;5072389;28;20059;-86
2022/01/09 00:22:41;;;;;;;34.95;21.70;;;;;;;4.00;100.00;92251.22;5072551;28;20101;-86
2022/01/09 00:25:09;;;;;;;36.75;21.65;;;;;;;3.96;100.00;92242.41;5072261;28;20041;-86
2022/01/09 00:27:37;;;;;;;34.92;21.40;;;;;;;4.01;100.00;92252.78;5072670;28;20063;-83
2022/01/09 00:30:07;;;;;;;31.75;21.17;;;;;;;4.01;100.00;92250.22;5072495;28;20048;-84
2022/01/09 00:32:34;;;;;;;31.25;20.48;;;;;;;4.02;100.00;92248.47;5072200;28;20101;-83
2022/01/09 00:35:01;;;;;;;33.72;21.67;;;;;;;4.03;100.00;92242.41;5072116;28;20530;-84
2022/01/09 00:37:28;;;;;;;36.17;22.25;;;;;;;3.99;100.00;92234.38;5072221;28;20048;-84
2022/01/09 00:39:56;;;;;;;35.38;21.25;;;;;;;4.07;100.00;92238.50;5071924;28;20055;-84
2022/01/09 00:42:23;;;;;;;33.75;20.67;;;;;;;4.06;100.00;92242.03;5072127;28;20044;-83
2022/01/09 00:44:50;;;;;;;36.92;22.38;;;;;;;4.09;100.00;92236.56;5071951;28;20056;-83
2022/01/09 00:47:18;;;;;;;34.05;21.15;;;;;;;4.08;100.00;92229.91;5071741;28;20044;-83
2022/01/09 00:49:50;;;;;;;35.28;20.65;;;;;;;4.10;100.00;92229.69;5071972;28;20052;-83
2022/01/09 00:52:18;;;;;;;34.17;20.15;;;;;;;4.01;100.00;92219.75;5071969;28;20098;-83
2022/01/09 00:54:45;;;;;;;33.50;20.17;;;;;;;4.12;100.00;92227.78;5071941;28;20095;-83
2022/01/09 00:57:11;;;;;;;34.42;21.80;;;;;;;3.83;100.00;92232.19;5071729;28;20049;-83
2022/01/09 00:59:38;;;;;;;35.53;22.50;;;;;;;3.79;100.00;92233.56;5071552;28;20045;-83
2022/01/09 01:02:05;;;;;;;37.05;23.27;;;;;;;3.75;100.00;92233.16;5071547;28;20540;-84
2022/01/09 01:04:35;;;;;;;35.90;21.13;;;;;;;3.77;100.00;92233.75;5071298;28;20060;-84
2022/01/09 01:07:02;;;;;;;36.33;22.48;;;;;;;3.82;100.00;92223.03;5071459;28;20046;-84
2022/01/09 01:09:31;;;;;;;44.63;25.08;;;;;;;3.72;100.00;92210.69;5071474;28;20103;-84
2022/01/09 01:11:58;;;;;;;37.78;22.58;;;;;;;3.70;100.00;92208.34;5071433;28;20053;-84
2022/01/09 01:14:26;;;;;;;43.50;25.05;;;;;;;3.75;100.00;92215.38;5071205;28;20098;-84
2022/01/09 01:16:53;;;;;;;39.17;22.98;;;;;;;3.71;100.00;92214.22;5071334;28;20074;-84
2022/01/09 01:19:20;;;;;;;37.97;22.65;;;;;;;3.69;100.00;92201.69;5071419;28;20048;-84
2022/01/09 01:21:48;;;;;;;30.05;19.83;;;;;;;3.61;100.00;92200.13;5071261;28;20045;-84
2022/01/09 01:24:17;;;;;;;33.70;21.08;;;;;;;3.67;100.00;92206.19;5071342;28;20048;-84
2022/01/09 01:26:44;;;;;;;30.75;19.63;;;;;;;3.59;100.00;92201.28;5071095;28;20044;-85
2022/01/09 01:29:11;;;;;;;30.10;19.10;;;;;;;3.49;100.00;92176.25;5070993;28;20052;-85
2022/01/09 01:31:38;;;;;;;30.67;18.52;;;;;;;3.75;100.00;92202.69;5071084;28;20087;-84
2022/01/09 01:34:04;;;;;;;28.25;17.35;;;;;;;3.74;100.00;92201.91;5070831;28;20491;-84
2022/01/09 01:36:31;;;;;;;29.10;18.15;;;;;;;3.82;100.00;92203.50;5070896;28;20049;-84
2022/01/09 01:39:02;;;;;;;33.53;20.30;;;;;;;3.80;100.00;92197.03;5071068;28;20052;-84
2022/01/09 01:41:29;;;;;;;30.10;19.13;;;;;;;3.86;100.00;92196.25;5070850;28;20048;-84
2022/01/09 01:43:58;;;;;;;28.75;17.73;;;;;;;3.77;100.00;92167.72;5071064;28;20544;-85
2022/01/09 01:46:28;;;;;;;28.90;18.20;;;;;;;3.83;100.00;92171.22;5070882;28;20814;-84
2022/01/09 01:48:55;;;;;;;23.30;15.70;;;;;;;3.82;100.00;92167.94;5070946;28;20487;-84
2022/01/09 01:51:22;;;;;;;24.38;15.38;;;;;;;3.99;100.00;92177.72;5070879;28;20055;-84
2022/01/09 01:53:55;;;;;;;24.80;15.45;;;;;;;4.04;100.00;92174.56;5070774;28;20060;-85
2022/01/09 01:56:24;;;;;;;26.15;15.30;;;;;;;3.97;100.00;92157.56;5071042;28;20141;-85
2022/01/09 01:58:56;;;;;;;22.65;13.63;;;;;;;4.08;100.00;92166.34;5070930;28;20048;-85
2022/01/09 02:01:23;;;;;;;21.17;13.85;;;;;;;4.01;100.00;92165.59;5070716;28;20049;-84
2022/01/09 02:03:49;;;;;;;25.70;15.82;;;;;;;3.94;100.00;92149.56;5070627;28;20057;-85
2022/01/09 02:06:18;;;;;;;25.60;15.00;;;;;;;3.96;100.00;92152.69;5070597;28;20048;-85
2022/01/09 02:08:45;;;;;;;24.02;14.27;;;;;;;3.92;100.00;92141.34;5070719;28;20119;-84
2022/01/09 02:11:13;;;;;;;22.77;15.02;;;;;;;3.92;100.00;92131.16;5070710;28;20388;-84
2022/01/09 02:13:45;;;;;;;24.13;15.07;;;;;;;4.10;100.00;92141.53;5070869;28;20048;-84
2022/01/09 02:16:18;;;;;;;22.75;15.02;;;;;;;4.12;100.00;92141.34;5070471;28;20045;-84
2022/01/09 02:18:45;;;;;;;23.45;14.07;;;;;;;4.03;100.00;92122.97;5070587;28;20045;-84
2022/01/09 02:21:16;;;;;;;18.95;12.40;;;;;;;4.12;100.00;92129.41;5070439;28;20052;-84
2022/01/09 02:23:49;;;;;;;19.67;12.80;;;;;;;4.15;100.00;92130.78;5070787;28;20135;-84
2022/01/09 02:26:18;;;;;;;21.65;12.73;;;;;;;4.13;100.00;92120.81;5070584;28;20455;-85
2022/01/09 02:28:45;;;;;;;21.98;13.45;;;;;;;4.13;100.00;92120.81;5070272;28;20049;-84
2022/01/09 02:31:12;;;;;;;21.63;13.90;;;;;;;4.07;100.00;92103.03;5070468;28;20044;-85
2022/01/09 02:33:39;;;;;;;22.90;13.93;;;;;;;4.09;100.00;92116.31;5070351;28;20110;-84
2022/01/09 02:36:06;;;;;;;21.88;13.98;;;;;;;3.99;100.00;92106.56;5070408;28;20415;-85
2022/01/09 02:38:34;;;;;;;23.08;14.20;;;;;;;3.97;100.00;92109.28;5070828;28;20048;-85
2022/01/09 02:41:00;;;;;;;21.80;14.00;;;;;;;3.90;100.00;92102.66;5070549;28;20053;-84
2022/01/09 02:43:28;;;;;;;20.42;13.68;;;;;;;3.88;100.00;92103.63;5070320;28;20044;-84
2022/01/09 02:46:04;;;;;;;22.88;14.02;;;;;;;3.93;100.00;92113.19;5070388;28;20049;-84
2022/01/09 02:48:35;;;;;;;;;;;;;;;3.92;100.00;92108.31;5074329;28;20483;-85
2022/01/09 02:51:07;;;;;;;25.33;15.93;;;;;;;3.85;100.00;92110.88;5073872;28;20409;-85
2022/01/09 02:53:38;;;;;;;24.75;16.05;;;;;;;3.82;100.00;92106.16;5074284;28;20078;-84
2022/01/09 02:56:08;;;;;;;27.92;18.52;;;;;;;3.82;100.00;92106.97;5074018;28;20052;-84
2022/01/09 02:58:37;;;;;;;26.50;17.17;;;;;;;3.85;100.00;92103.25;5073875;28;20048;-84
2022/01/09 03:01:04;;;;;;;29.77;19.38;;;;;;;3.82;100.00;92091.72;5073920;28;20091;-85
2022/01/09 03:03:33;;;;;;;36.80;19.27;;;;;;;3.83;100.00;92092.47;5073895;28;20048;-85
2022/01/09 03:06:02;;;;;;;32.65;19.92;;;;;;;3.60;100.00;92053.81;5073985;28;20044;-85
2022/01/09 03:08:30;;;;;;;32.03;19.77;;;;;;;3.62;100.00;92063.78;5073873;28;20063;-84
2022/01/09 03:10:58;;;;;;;32.58;20.40;;;;;;;3.74;100.00;92085.06;5073640;28;20055;-85
2022/01/09 03:13:26;;;;;;;31.88;19.95;;;;;;;3.84;100.00;92082.13;5073685;28;20056;-85
2022/01/09 03:15:53;;;;;;;38.00;22.15;;;;;;;3.85;100.00;92081.16;5073763;28;20491;-84
2022/01/09 03:18:20;;;;;;;31.05;18.70;;;;;;;3.79;100.00;92068.47;5073534;28;20102;-84
2022/01/09 03:20:47;;;;;;;31.58;19.95;;;;;;;3.83;100.00;92072.94;5073923;28;20418;-85
2022/01/09 03:23:14;;;;;;;32.58;19.65;;;;;;;3.82;100.00;92063.78;5073476;28;20479;-84
2022/01/09 03:25:40;;;;;;;33.90;20.25;;;;;;;3.86;100.00;92081.94;5073281;28;20055;-85
2022/01/09 03:28:09;;;;;;;35.47;21.60;;;;;;;3.85;100.00;92077.84;5073629;28;20049;-84
2022/01/09 03:30:37;;;;;;;34.80;20.80;;;;;;;3.87;100.00;92083.50;5073502;28;20044;-84
2022/01/09 03:33:04;;;;;;;29.25;18.05;;;;;;;3.57;100.00;92044.03;5073283;28;20487;-85
2022/01/09 03:35:32;;;;;;;29.02;18.30;;;;;;;3.83;100.00;92080.56;5073436;28;20045;-85
2022/01/09 03:37:59;;;;;;;28.75;18.15;;;;;;;3.72;100.00;92053.22;5073194;28;20053;-86
2022/01/09 03:40:28;;;;;;;28.73;17.33;;;;;;;3.79;100.00;92061.63;5073127;28;20608;-85
2022/01/09 03:42:56;;;;;;;30.00;18.13;;;;;;;3.78;100.00;92067.69;5073349;28;20090;-84
2022/01/09 03:45:26;;;;;;;30.33;18.60;;;;;;;3.68;100.00;92057.91;5073195;28;20052;-85
2022/01/09 03:47:53;;;;;;;28.25;17.45;;;;;;;3.72;100.00;92058.31;5073037;28;20501;-86
2022/01/09 03:50:20;;;;;;;27.20;17.95;;;;;;;3.63;100.00;92054.38;5072908;28;20053;-84
2022/01/09 03:52:49;;;;;;;30.17;18.75;;;;;;;3.59;100.00;92054.78;5072788;28;20505;-85
2022/01/09 03:55:17;;;;;;;29.75;17.85;;;;;;;3.59;100.00;92044.63;5073182;28;20131;-84
2022/01/09 03:57:44;;;;;;;25.83;17.17;;;;;;;3.59;100.00;92044.63;5072735;28;20044;-85
2022/01/09 04:00:14;;;;;;;28.17;18.02;;;;;;;3.56;100.00;92034.09;5072833;28;20063;-84
2022/01/09 04:02:44;;;;;;;26.73;17.42;;;;;;;3.56;100.00;92044.25;5072811;28;20047;-84
2022/01/09 04:05:11;;;;;;;28.23;16.98;;;;;;;3.54;100.00;92046.97;5073046;28;20052;-85
2022/01/09 04:07:39;;;;;;;24.73;16.17;;;;;;;3.49;100.00;92036.63;5072734;28;20056;-85
2022/01/09 04:10:06;;;;;;;26.88;16.85;;;;;;;3.47;100.00;92038.56;5072768;28;20044;-85
2022/01/09 04:12:36;;;;;;;25.02;16.27;;;;;;;3.43;100.00;92040.72;5072572;28;20537;-84
2022/01/09 04:15:06;;;;;;;26.05;16.67;;;;;;;3.38;100.00;92035.44;5072647;28;20131;-84
2022/01/09 04:17:43;;;;;;;29.95;16.73;;;;;;;3.38;100.00;92039.75;5072408;28;20384;-85
2022/01/09 04:20:12;;;;;;;25.08;15.23;;;;;;;3.35;100.00;92033.31;5072718;28;20407;-84
2022/01/09 04:22:40;;;;;;;25.73;15.73;;;;;;;3.33;100.00;92032.69;5072360;28;20059;-84
2022/01/09 04:25:08;;;;;;;21.88;15.10;;;;;;;3.33;100.00;92030.94;5072529;28;20415;-84
2022/01/09 04:27:35;;;;;;;28.73;17.80;;;;;;;3.23;100.00;92017.09;5072350;28;20044;-84
2022/01/09 04:30:02;;;;;;;40.47;24.30;;;;;;;3.15;100.00;92003.59;5073019;28;20063;-84
2022/01/09 04:32:30;;;;;;;46.05;24.73;;;;;;;3.24;100.00;92033.88;5072449;28;20044;-84
2022/01/09 04:34:57;;;;;;;43.63;23.73;;;;;;;3.16;100.00;92017.84;5072139;28;20055;-84
2022/01/09 04:37:25;;;;;;;40.17;23.00;;;;;;;3.27;100.00;92034.28;5072250;28;20056;-84
2022/01/09 04:39:53;;;;;;;39.90;24.58;;;;;;;3.26;100.00;92037.78;5072158;28;20076;-84
2022/01/09 04:42:24;;;;;;;42.15;24.70;;;;;;;3.28;100.00;92040.13;5072028;28;20079;-84
2022/01/09 04:44:52;;;;;;;41.10;25.52;;;;;;;3.28;100.00;92040.13;5072311;28;20048;-84
2022/01/09 04:47:21;;;;;;;43.47;26.83;;;;;;;3.27;100.00;92039.34;5072121;28;20086;-84
2022/01/09 04:49:49;;;;;;;41.22;24.20;;;;;;;3.27;100.00;92043.63;5072026;28;20564;-84
2022/01/09 04:52:19;;;;;;;42.42;25.13;;;;;;;3.24;100.00;92046.56;5071979;28;20052;-85
2022/01/09 04:54:47;;;;;;;41.35;24.02;;;;;;;3.14;100.00;92041.88;5079885;27;20491;-84
2022/01/09 04:57:14;;;;;;;42.55;25.88;;;;;;;3.09;100.00;92054.34;5071667;28;20085;-85
2022/01/09 04:59:43;;;;;;;70.22;42.83;;;;;;;2.89;100.00;92047.47;5071858;28;20071;-85
2022/01/09 05:02:10;;;;;;;40.15;24.80;;;;;;;2.61;100.00;92054.22;5071561;28;20060;-85
2022/01/09 05:04:37;;;;;;;38.67;24.02;;;;;;;2.46;100.00;92056.09;5071526;28;20143;-85
2022/01/09 05:07:04;;;;;;;46.55;27.98;;;;;;;2.44;100.00;92053.75;5071591;28;20052;-85
2022/01/09 05:09:31;;;;;;;47.80;28.40;;;;;;;2.30;100.00;92050.38;5070778;28;20056;-84
2022/01/09 05:12:01;;;;;;;43.05;26.05;;;;;;;2.17;100.00;92032.59;5071314;28;20723;-85
2022/01/09 05:14:27;;;;;;;43.83;26.88;;;;;;;2.31;100.00;92053.69;5071344;28;20048;-85
2022/01/09 05:16:56;;;;;;;48.20;29.83;;;;;;;2.42;100.00;92054.91;5071356;28;20499;-85
2022/01/09 05:19:28;;;;;;;49.63;28.45;;;;;;;2.53;100.00;92050.09;5071321;28;20049;-85
2022/01/09 05:21:57;;;;;;;45.33;27.05;;;;;;;2.60;100.00;92047.56;5067729;28;20055;-85
2022/01/09 05:24:24;;;;;;;45.65;26.65;;;;;;;2.64;100.00;92050.53;5067553;28;20040;-85
2022/01/09 05:26:51;;;;;;;44.13;26.55;;;;;;;2.60;100.00;92034.13;5071178;28;20071;-85
2022/01/09 05:29:19;;;;;;;49.58;28.75;;;;;;;2.80;100.00;92051.94;5071299;28;20041;-85
2022/01/09 05:31:47;;;;;;;54.28;29.50;;;;;;;2.90;100.00;92043.94;5071017;28;20053;-85
2022/01/09 05:34:14;;;;;;;54.83;30.60;;;;;;;2.89;100.00;92027.19;5070771;28;20044;-85
2022/01/09 05:36:40;;;;;;;54.80;31.33;;;;;;;3.00;100.00;92041.84;5071424;28;20506;-85
2022/01/09 05:39:07;;;;;;;49.22;26.42;;;;;;;2.97;100.00;92039.69;5070913;28;20048;-85
2022/01/09 05:41:34;;;;;;;40.63;24.45;;;;;;;3.00;100.00;92033.47;5070653;28;20536;-85
2022/01/09 05:44:01;;;;;;;39.45;23.95;;;;;;;3.00;100.00;92038.53;5070363;28;20157;-86
2022/01/09 05:46:29;;;;;;;39.20;24.35;;;;;;;3.04;100.00;92032.09;5070149;28;20048;-85
2022/01/09 05:48:56;;;;;;;38.72;23.08;;;;;;;3.13;100.00;92037.75;5069297;28;20045;-86
2022/01/09 05:51:23;;;;;;;38.78;23.13;;;;;;;3.16;100.00;92028.00;5071280;28;20052;-85
2022/01/09 05:53:50;;;;;;;35.78;22.38;;;;;;;3.21;100.00;92027.44;5071123;28;20044;-85
2022/01/09 05:56:16;;;;;;;40.70;23.50;;;;;;;3.37;100.00;92028.03;5070802;28;20106;-85
2022/01/09 05:58:43;;;;;;;40.40;22.83;;;;;;;3.38;100.00;92029.59;5070592;28;20502;-85
2022/01/09 06:01:10;;;;;;;39.78;24.20;;;;;;;3.42;100.00;92018.09;5070804;28;20048;-85
2022/01/09 06:03:38;;;;;;;37.58;23.63;;;;;;;3.40;100.00;92009.88;5070441;28;20044;-85
2022/01/09 06:06:06;;;;;;;31.88;19.88;;;;;;;3.58;100.00;92029.59;5070539;28;20049;-85
2022/01/09 06:08:33;;;;;;;32.38;20.30;;;;;;;3.61;100.00;92029.97;5070689;28;20052;-85
2022/01/09 06:10:59;;;;;;;30.23;18.60;;;;;;;3.65;100.00;92024.53;5070523;28;20053;-85
2022/01/09 06:13:26;;;;;;;30.30;17.63;;;;;;;3.64;100.00;92018.66;5070701;28;20053;-85
2022/01/09 06:15:53;;;;;;;32.58;16.83;;;;;;;3.66;100.00;92024.31;5070648;28;20417;-85
2022/01/09 06:18:20;;;;;;;26.73;16.92;;;;;;;3.66;100.00;92031.91;5070257;28;20044;-85
2022/01/09 06:20:50;;;;;;;28.85;17.58;;;;;;;3.66;100.00;92015.91;5071406;28;20048;-86
2022/01/09 06:23:20;;;;;;;25.58;17.20;;;;;;;3.72;100.00;92028.63;5074943;28;20098;-85
2022/01/09 06:25:47;;;;;;;23.52;15.88;;;;;;;3.71;100.00;92028.81;5075024;28;20064;-85
2022/01/09 06:28:14;;;;;;;24.52;15.32;;;;;;;3.68;100.00;92011.41;5074864;28;20052;-85
2022/01/09 06:30:42;;;;;;;32.63;19.08;;;;;;;3.69;100.00;92006.16;5074485;28;20052;-85
2022/01/09 06:33:09;;;;;;;33.97;21.55;;;;;;;3.77;100.00;92022.16;5074285;28;20411;-85
2022/01/09 06:35:36;;;;;;;35.28;22.20;;;;;;;3.82;100.00;92023.13;5074512;28;20051;-85
2022/01/09 06:38:05;;;;;;;50.65;29.70;;;;;;;3.76;100.00;92010.44;5074727;28;20284;-85
2022/01/09 06:40:32;;;;;;;61.30;34.63;;;;;;;3.87;100.00;92022.53;5074699;28;20052;-86
2022/01/09 06:43:00;;;;;;;60.67;34.78;;;;;;;3.79;100.00;92015.13;5074471;28;20045;-85
2022/01/09 06:45:27;;;;;;;61.58;34.83;;;;;;;3.88;100.00;92032.50;5074262;28;20049;-85
2022/01/09 06:47:57;;;;;;;72.50;38.60;;;;;;;3.86;100.00;92029.38;5074208;28;20049;-86
2022/01/09 06:50:26;;;;;;;62.35;34.70;;;;;;;3.92;100.00;92037.16;5074111;28;20633;-85
2022/01/09 06:52:53;;;;;;;64.38;35.95;;;;;;;3.85;100.00;92024.50;5074048;28;20059;-85
2022/01/09 06:55:24;;;;;;;62.45;35.65;;;;;;;4.01;100.00;92031.69;5074128;28;20059;-85
2022/01/09 06:57:51;;;;;;;68.32;36.70;;;;;;;4.05;100.00;92029.53;5073989;28;20457;-85
2022/01/09 07:00:18;;;;;;;55.28;30.90;;;;;;;3.44;100.00;91922.97;5073851;28;20048;-85
2022/01/09 07:02:45;;;;;;;46.03;30.90;;;;;;;4.16;100.00;92025.59;5073936;28;20075;-85
2022/01/09 07:05:13;;;;;;;52.88;31.35;;;;;;;4.16;100.00;92012.13;5074108;28;20055;-85
2022/01/09 07:07:42;;;;;;;52.65;31.38;;;;;;;4.25;100.00;92021.06;5073870;28;20052;-85
2022/01/09 07:10:11;;;;;;;60.92;36.63;;;;;;;4.30;100.00;92026.34;5073708;28;20044;-84
2022/01/09 07:12:39;;;;;;;63.88;35.60;;;;;;;4.21;100.00;92004.69;5073611;28;20052;-85
2022/01/09 07:15:07;;;;;;;54.55;33.33;;;;;;;4.31;100.00;92019.50;5073709;28;20048;-85
2022/01/09 07:17:34;;;;;;;61.85;36.10;;;;;;;4.36;100.00;92030.63;5073759;28;20045;-84
2022/01/09 07:20:01;;;;;;;75.03;43.08;;;;;;;4.35;100.00;92031.59;5073615;28;20053;-85
2022/01/09 07:22:28;;;;;;;71.65;40.88;;;;;;;4.22;100.00;92019.72;5073604;28;20469;-85
2022/01/09 07:24:55;;;;;;;56.75;33.22;;;;;;;4.40;100.00;92023.41;5073583;28;20102;-85
2022/01/09 07:27:22;;;;;;;51.08;31.70;;;;;;;4.38;100.00;92017.72;5073514;28;20045;-85
2022/01/09 07:29:50;;;;;;;46.50;31.88;;;;;;;4.35;100.00;92013.81;5073400;28;20044;-86
2022/01/09 07:32:17;;;;;;;57.83;35.15;;;;;;;4.54;100.00;92027.44;5072671;28;20045;-85
2022/01/09 07:34:43;;;;;;;44.78;29.42;;;;;;;4.47;100.00;92018.25;5073425;28;20049;-85
2022/01/09 07:37:12;;;;;;;64.40;37.35;;;;;;;4.60;100.00;92020.78;5073346;28;20052;-85
2022/01/09 07:39:39;;;;;;;59.90;34.53;;;;;;;4.73;100.00;92011.50;5073210;28;20434;-86
2022/01/09 07:42:06;;;;;;;72.30;44.08;;;;;;;4.82;100.00;92013.59;5073172;28;20045;-85
2022/01/09 07:44:33;;;;;;;37.65;24.77;;;;;;;4.92;100.00;92013.16;5073733;28;20127;-85
2022/01/09 07:47:01;;;;;;;39.20;24.20;;;;;;;4.99;100.00;92008.03;5073397;28;20049;-85
2022/01/09 07:49:28;;;;;;;46.00;26.60;;;;;;;5.06;100.00;92000.38;5073031;28;20491;-85
2022/01/09 07:51:55;;;;;;;19.45;11.50;;;;;;;5.12;100.00;91991.13;5072977;28;20491;-85
2022/01/09 07:54:21;;;;;;;30.48;19.33;;;;;;;5.28;100.00;91998.25;5073046;28;20052;-86
2022/01/09 07:56:48;;;;;;;26.92;17.67;;;;;;;5.40;100.00;92006.00;5072974;28;20492;-86
2022/01/09 07:59:15;;;;;;;45.85;24.75;;;;;;;5.37;100.00;91995.47;5073068;28;20049;-85
2022/01/09 08:01:42;;;;;;;52.78;26.73;;;;;;;5.17;100.00;91999.72;5072934;28;20457;-85
2022/01/09 08:04:10;;;;;;;53.92;28.10;;;;;;;5.16;100.00;91989.72;5072836;28;20507;-85
2022/01/09 08:06:39;;;;;;;47.85;25.77;;;;;;;5.31;100.00;91991.97;5072644;28;20052;-85
2022/01/09 08:09:06;;;;;;;46.05;26.88;;;;;;;5.32;100.00;91988.47;5072622;28;20052;-84
2022/01/09 08:11:32;;;;;;;44.33;23.80;;;;;;;5.44;100.00;91983.47;5072828;28;20048;-85
2022/01/09 08:13:59;;;;;;;45.63;24.58;;;;;;;5.44;100.00;91983.47;5072718;28;20056;-85
2022/01/09 08:16:26;;;;;;;35.38;20.45;;;;;;;5.41;100.00;91969.38;5072563;28;20094;-86
2022/01/09 08:18:54;;;;;;;38.88;20.92;;;;;;;5.51;100.00;91963.78;5072492;28;20048;-85
2022/01/09 08:21:22;;;;;;;40.30;27.05;;;;;;;5.62;100.00;91960.56;5072355;28;20053;-85
2022/01/09 08:23:50;;;;;;;36.65;22.85;;;;;;;5.72;100.00;91967.75;5072362;28;20045;-85
2022/01/09 08:26:17;;;;;;;34.58;20.50;;;;;;;5.73;100.00;91963.41;5072382;28;20052;-85
2022/01/09 08:28:47;;;;;;;35.38;20.05;;;;;;;5.87;100.00;91967.41;5072411;28;20056;-85
2022/01/09 08:31:15;;;;;;;42.75;22.88;;;;;;;5.95;100.00;91965.56;5072315;28;20048;-85
2022/01/09 08:33:42;;;;;;;45.72;23.15;;;;;;;6.11;100.00;91964.25;5072240;28;20052;-85
2022/01/09 08:36:09;;;;;;;40.13;22.95;;;;;;;5.64;100.00;91950.16;5072117;28;20044;-85
2022/01/09 08:38:37;;;;;;;41.75;23.67;;;;;;;5.52;100.00;91945.00;5072422;28;20048;-85
2022/01/09 08:41:04;;;;;;;47.13;25.08;;;;;;;5.78;100.00;91965.34;5072197;28;20411;-85
2022/01/09 08:43:31;;;;;;;49.88;24.65;;;;;;;5.73;100.00;91965.97;5072778;28;20548;-85
2022/01/09 08:45:58;;;;;;;39.40;22.13;;;;;;;5.79;100.00;91961.81;5071256;28;20041;-85
2022/01/09 08:48:25;;;;;;;83.70;55.20;;;;;;;5.96;100.00;91957.72;5072664;28;20868;-86
2022/01/09 08:50:52;;;;;;;47.10;30.92;;;;;;;6.02;100.00;91943.34;5071804;28;20045;-85
2022/01/09 08:53:19;;;;;;;28.13;18.25;;;;;;;6.13;100.00;91936.78;5072837;28;20052;-86
2022/01/09 08:55:47;;;;;;;19.23;10.50;;;;;;;6.32;100.00;91941.84;5072131;28;20064;-84
2022/01/09 08:58:14;;;;;;;20.15;10.15;;;;;;;6.32;100.00;91918.88;5071765;28;20052;-85
2022/01/09 09:00:41;;;;;;;18.45;12.00;;;;;;;6.58;100.00;91943.31;5071737;28;20048;-85
2022/01/09 09:03:09;;;;;;;18.73;9.70;;;;;;;6.72;100.00;91936.25;5072306;28;20055;-85
2022/01/09 09:05:35;;;;;;;17.30;8.63;;;;;;;6.83;100.00;91937.28;5071784;28;20048;-85
2022/01/09 09:08:03;;;;;;;14.65;8.70;;;;;;;6.83;100.00;91927.06;5071516;28;20040;-84
2022/01/09 09:10:30;;;;;;;15.18;7.85;;;;;;;6.93;100.00;91923.97;5071703;28;20094;-84
2022/01/09 09:12:58;;;;;;;15.25;7.35;;;;;;;7.03;100.00;91933.66;5071570;28;20102;-85
2022/01/09 09:15:25;;;;;;;16.45;7.95;;;;;;;7.07;100.00;91933.00;5071918;28;20049;-86
2022/01/09 09:17:52;;;;;;;21.95;9.00;;;;;;;7.13;100.00;91922.91;5071221;28;20056;-86
2022/01/09 09:20:19;;;;;;;27.85;16.55;;;;;;;7.21;100.00;91922.56;5071528;28;20048;-85
2022/01/09 09:22:46;;;;;;;17.15;8.80;;;;;;;7.09;100.00;91907.25;5071160;28;20044;-86
2022/01/09 09:25:13;;;;;;;24.17;11.07;;;;;;;7.20;100.00;91923.59;5071286;28;20052;-85
2022/01/09 09:27:40;;;;;;;28.63;14.55;;;;;;;7.25;100.00;91910.94;5071095;28;20078;-86
2022/01/09 09:30:14;;;;;;;33.60;17.73;;;;;;;7.05;100.00;91889.03;5070274;28;20045;-85
2022/01/09 09:32:43;;;;;;;20.08;9.45;;;;;;;7.22;100.00;91914.69;5070538;28;20045;-86
2022/01/09 09:35:13;;;;;;;28.20;12.38;;;;;;;7.19;100.00;91889.59;5068320;28;20151;-86
2022/01/09 09:37:43;;;;;;;34.80;17.70;;;;;;;7.34;100.00;91907.06;5070841;28;20071;-86
2022/01/09 09:40:11;;;;;;;27.55;12.85;;;;;;;7.34;100.00;91891.72;5070550;28;20090;-87
2022/01/09 09:42:38;;;;;;;24.10;11.38;;;;;;;7.40;100.00;91886.72;5070278;28;20044;-86
2022/01/09 09:45:10;;;;;;;54.33;21.55;;;;;;;7.55;100.00;91889.59;5067047;28;20106;-86
2022/01/09 09:47:39;;;;;;;38.20;15.35;;;;;;;7.62;100.00;91890.28;5069862;28;20097;-86
2022/01/09 09:50:08;;;;;;;25.60;11.93;;;;;;;7.67;100.00;91889.59;5069579;28;20044;-86
2022/01/09 09:52:35;;;;;;;27.33;11.35;;;;;;;7.69;100.00;91874.81;5067605;28;20044;-87
2022/01/09 09:58:41;;;;;;;18.00;10.05;;;;;;;7.65;100.00;91872.94;5037201;28;20048;-86
2022/01/09 10:01:27;;;;;;;23.85;11.32;;;;;;;7.64;100.00;91866.28;5034792;28;20477;-86
2022/01/09 10:07:37;;;;;;;18.48;9.35;;;;;;;7.62;100.00;91866.47;5070639;28;20052;-84
2022/01/09 10:10:09;;;;;;;21.42;13.18;;;;;;;7.52;100.00;91866.28;5071369;28;20369;-84
2022/01/09 10:12:37;;;;;;;39.45;24.15;;;;;;;7.63;100.00;91865.47;5070895;28;20048;-84
2022/01/09 10:15:07;;;;;;;25.83;13.82;;;;;;;7.69;100.00;91869.69;5070766;28;20053;-85
2022/01/09 10:17:41;;;;;;;18.27;10.50;;;;;;;7.68;100.00;91864.81;5070599;28;20415;-84
2022/01/09 10:20:12;;;;;;;22.45;14.60;;;;;;;7.64;100.00;91840.72;5070709;28;20044;-85
2022/01/09 10:22:41;;;;;;;12.43;8.15;;;;;;;7.85;100.00;91862.34;5070628;28;20053;-86
2022/01/09 10:25:32;;;;;;;17.48;10.43;;;;;;;7.91;100.00;91855.56;5070694;28;20106;-85
2022/01/09 10:28:03;;;;;;;11.63;6.50;;;;;;;7.97;100.00;91854.63;5055598;28;20045;-85
2022/01/09 10:30:34;;;;;;;9.25;5.30;;;;;;;8.06;100.00;91844.81;5070459;28;20121;-85
2022/01/09 10:33:05;;;;;;;12.63;6.40;;;;;;;8.12;100.00;91838.81;5070317;28;20098;-85
2022/01/09 10:35:32;;;;;;;11.30;6.25;;;;;;;8.14;100.00;91837.56;5070708;28;20098;-86
2022/01/09 10:38:19;;;;;;;11.00;7.60;;;;;;;8.24;100.00;91844.63;5070437;28;20056;-85
2022/01/09 10:40:52;;;;;;;8.50;5.82;;;;;;;8.08;100.00;91818.03;5070417;28;20048;-86
2022/01/09 10:43:20;;;;;;;14.90;10.07;;;;;;;7.88;100.00;91782.63;5070288;28;20044;-86
2022/01/09 10:45:50;;;;;;;12.45;7.43;;;;;;;8.22;100.00;91836.44;5070555;28;20453;-86
2022/01/09 10:48:21;;;;;;;11.85;7.13;;;;;;;8.37;100.00;91828.25;5070337;28;20048;-85
2022/01/09 10:50:49;;;;;;;11.90;7.55;;;;;;;8.45;100.00;91816.06;5070347;28;20041;-86
2022/01/09 10:53:25;;;;;;;18.15;10.60;;;;;;;8.61;100.00;91817.13;5070341;28;20094;-86
2022/01/09 10:56:06;;;;;;;;;;;;;;;8.77;100.00;91823.25;5071074;28;20052;-86
2022/01/09 10:58:35;;;;;;;32.25;16.50;;;;;;;8.94;100.00;91823.28;5070437;28;19924;-86
2022/01/09 11:01:26;;;;;;;13.98;9.07;;;;;;;9.16;100.00;91825.88;5070254;28;20050;-86
2022/01/09 11:03:56;;;;;;;15.93;7.45;;;;;;;8.70;100.00;91728.69;5055238;28;20048;-86
2022/01/09 11:06:24;;;;;;;14.52;8.80;;;;;;;9.30;100.00;91793.03;5070181;28;20411;-87
2022/01/09 11:08:52;;;;;;;15.38;8.20;;;;;;;9.53;100.00;91816.13;5072403;28;20052;-86
2022/01/09 11:11:25;;;;;;;11.93;7.50;;;;;;;9.49;100.00;91798.66;5073876;28;20040;-86
2022/01/09 11:13:54;;;;;;;11.93;7.85;;;;;;;9.71;100.00;91809.91;5073781;28;20044;-87
2022/01/09 11:16:33;;;;;;;9.00;5.53;;;;;;;9.70;100.00;91811.72;5073520;28;20048;-87
2022/01/09 11:19:04;;;;;;;14.80;8.73;;;;;;;9.78;100.00;91795.16;5053919;28;20045;-86
2022/01/09 11:21:31;;;;;;;19.08;10.38;;;;;;;9.85;100.00;91800.84;5053891;28;20388;-86
2022/01/09 11:24:08;;;;;;;9.50;6.65;;;;;;;9.86;100.00;91778.56;5055361;28;20052;-86
2022/01/09 11:26:56;;;;;;;9.35;5.53;;;;;;;9.84;99.93;91772.88;5053560;28;20049;-86
2022/01/09 11:29:39;;;;;;;12.55;7.35;;;;;;;10.10;100.00;91799.56;5053707;28;20484;-86
2022/01/09 11:32:18;;;;;;;12.35;6.80;;;;;;;10.23;99.63;91798.41;5056768;28;20052;-85